Terminal Aerodrome Forecast
Issued by NWS Dallas/Fort Worth, TX

Home | Current Version | Previous Version | Text Only | Print | Product List | Glossary On
Versions: 1 2 3 4 5 6 7 8 9 10 11 12 13 14 15 16 17 18 19 20 21 22 23 24 25 26 27 28 29 30 31 32 33 34 35 36 37 38 39
000
FTUS44 KFWD 232300
TAFDFW
TAF
KDFW 232324Z 2400/2506 30022G32KT P6SM FEW060
     FM240200 31018G28KT P6SM SCT040
     FM240400 31015KT P6SM SCT100
     FM240900 30011KT P6SM FEW150
     FM250000 24005KT P6SM SCT250=

USA.gov is the U.S. government's official web portal to all federal, state and local government web resources and services.